Погода Егоровна неделю

Ростовская область, Россия

22 - 28 мая
  • 22мая
    Сегодня
    +15°
    +26°
    Небольшая облачность
    ВремяПогодаТемператураВлажностьДавлениеВетер, м/сВероятность осадков
    00:00Облачно с прояснениями+17°C58 %761 мм1.2 м/с2 %
    03:00Облачно с прояснениями+16°C71 %761 мм1.2 м/с2 %
    06:00Облачно с прояснениями+17°C67 %762 мм1.2 м/с2 %
    09:00Облачно с прояснениями+22°C34 %762 мм1.8 м/с2 %
    12:00Облачно с прояснениями+25°C24 %761 мм2.5 м/с2 %
    15:00Небольшая облачность+26°C25 %760 мм3.0 м/с2 %
    18:00Ясно и безоблачно+25°C32 %759 мм1.5 м/с2 %
    21:00Ясно и безоблачно+20°C59 %760 мм1.7 м/с2 %
  • 23мая
    Четверг
    +15°
    +25°
    Ясно и безоблачно
    ВремяПогодаТемператураВлажностьДавлениеВетер, м/сВероятность осадков
    00:00Ясно и безоблачно+18°C59 %759 мм1.7 м/с2 %
    03:00Ясно и безоблачно+16°C53 %759 мм1.7 м/с2 %
    06:00Ясно и безоблачно+17°C58 %760 мм1.3 м/с2 %
    09:00Ясно и безоблачно+22°C40 %760 мм2.2 м/с2 %
    12:00Ясно и безоблачно+24°C28 %760 мм2.5 м/с2 %
    15:00Ясно и безоблачно+26°C26 %759 мм3.3 м/с2 %
    18:00Ясно и безоблачно+24°C30 %758 мм3.0 м/с3 %
    21:00Ясно и безоблачно+21°C56 %759 мм3.3 м/с2 %
  • 24мая
    Пятница
    +12°
    +22°
    Ясно и безоблачно
    ВремяПогодаТемператураВлажностьДавлениеВетер, м/сВероятность осадков
    00:00Ясно и безоблачно+18°C65 %760 мм3.3 м/с2 %
    03:00Ясно и безоблачно+17°C75 %761 мм4.3 м/с2 %
    06:00Практически безоблачно+16°C53 %762 мм4.7 м/с2 %
    09:00Ясно и безоблачно+17°C46 %764 мм5.4 м/с2 %
    12:00Ясно и безоблачно+20°C36 %764 мм5.6 м/с2 %
    15:00Ясно и безоблачно+21°C31 %764 мм5.4 м/с2 %
    18:00Ясно и безоблачно+21°C27 %765 мм4.7 м/с2 %
    21:00Ясно и безоблачно+18°C33 %766 мм4.5 м/с2 %
  • 25мая
    Суббота
    +13°
    +23°
    Ясно и безоблачно
    ВремяПогодаТемператураВлажностьДавлениеВетер, м/сВероятность осадков
    00:00Ясно и безоблачно+15°C35 %767 мм4.2 м/с2 %
    03:00Ясно и безоблачно+13°C38 %768 мм4.3 м/с2 %
    06:00Ясно и безоблачно+13°C41 %768 мм4.3 м/с2 %
    09:00Ясно и безоблачно+17°C28 %769 мм5.4 м/с2 %
    12:00Ясно и безоблачно+19°C24 %768 мм5.2 м/с2 %
    15:00Ясно и безоблачно+21°C22 %767 мм5.0 м/с2 %
    18:00Облачно с прояснениями+21°C24 %766 мм4.1 м/с2 %
    21:00Облачно с прояснениями+18°C32 %766 мм3.9 м/с2 %
Мы используем cookies
Соглашаюсь